Jacksboro, Texas
Current Conditions -  °F | °C
As of 6:55 AM on Monday 22 Dec 2014 (Local Time) from KXBP Reporting Station
Clear Clear  
Wind Chill: 45°   Ceiling: Unl
Heat Index: 49°   Visibility: 10mi
Dew Point: 47°   Wind: 8mph
Humidity: 93%   Direction: 210°SSW
Pressure: 29.58"   Gusts: NA
Location:  33.22°N, 98.16°W
Report Text: KXBP 221255Z AUTO 21007KT 10SM CLR 09/08 A2958 RMK AO2 T00920082
Loading
Personal Weather Stations






























Interactive Weather Map New forecast layout! Learn more

10-Day Weather Forecast

Advertisements
Track Severe Weather on mobile